createdAt,value
2023-02-06T00:01:52.039Z,12.40
2023-02-06T00:04:20.702Z,11.40
2023-02-06T00:06:50.357Z,12.13
2023-02-06T00:09:18.813Z,11.27
2023-02-06T00:11:49.864Z,12.77
2023-02-06T00:14:18.308Z,13.70
2023-02-06T00:16:46.767Z,12.00
2023-02-06T00:19:15.238Z,11.83
2023-02-06T00:21:43.932Z,13.10
2023-02-06T00:24:14.539Z,11.47
2023-02-06T00:26:43.011Z,13.37
2023-02-06T00:29:11.442Z,10.47
2023-02-06T00:31:40.164Z,10.30
2023-02-06T00:34:08.703Z,12.60
2023-02-06T00:36:37.157Z,11.67
2023-02-06T00:39:05.589Z,10.40
2023-02-06T00:41:36.156Z,13.90
2023-02-06T00:44:04.586Z,10.37
2023-02-06T00:46:33.428Z,10.93
2023-02-06T00:49:01.962Z,11.40
2023-02-06T00:51:30.593Z,12.10
2023-02-06T00:54:01.407Z,13.60
2023-02-06T00:56:29.848Z,11.43
2023-02-06T00:58:58.305Z,11.00
2023-02-06T01:01:26.957Z,10.90
2023-02-06T01:03:55.482Z,10.73
2023-02-06T01:06:24.118Z,12.27
2023-02-06T01:08:52.594Z,10.20
2023-02-06T01:11:24.288Z,9.30
2023-02-06T01:13:53.049Z,9.80
2023-02-06T01:16:25.403Z,13.67
2023-02-06T01:18:53.878Z,11.07
2023-02-06T01:21:25.747Z,10.90
2023-02-06T01:23:55.440Z,10.87
2023-02-06T01:26:27.655Z,12.67
2023-02-06T01:28:56.585Z,13.10
2023-02-06T01:35:26.919Z,12.73
2023-02-06T01:37:55.565Z,13.43
2023-02-06T01:40:23.918Z,14.13
2023-02-06T01:42:52.577Z,12.57
2023-02-06T01:45:26.978Z,13.90
2023-02-06T01:48:07.391Z,13.97
2023-02-06T01:50:38.386Z,13.37
2023-02-06T01:53:07.875Z,15.33
2023-02-06T01:55:38.807Z,14.17
2023-02-06T01:58:09.211Z,13.87
2023-02-06T02:00:38.055Z,14.60
2023-02-06T02:03:07.493Z,12.70
2023-02-06T02:05:36.623Z,14.23
2023-02-06T02:08:17.470Z,12.07
2023-02-06T02:10:46.257Z,11.93
2023-02-06T02:13:14.941Z,14.27
2023-02-06T02:15:50.569Z,12.83
2023-02-06T02:18:31.672Z,15.40
2023-02-06T02:21:51.644Z,15.63
2023-02-06T02:24:39.119Z,15.23
2023-02-06T02:27:28.551Z,15.47
2023-02-06T02:30:03.278Z,13.23
2023-02-06T02:33:27.537Z,14.73
2023-02-06T02:36:31.035Z,13.77
2023-02-06T02:40:01.619Z,16.23
2023-02-06T02:42:44.846Z,14.30
2023-02-06T02:45:27.011Z,13.33
2023-02-06T02:48:22.430Z,16.00
2023-02-06T02:50:51.854Z,21.73
2023-02-06T02:53:20.577Z,14.27
2023-02-06T02:55:49.230Z,12.67
2023-02-06T02:58:23.776Z,13.80
2023-02-06T03:01:00.348Z,13.73
2023-02-06T03:03:31.476Z,14.23
2023-02-06T03:06:49.892Z,12.10
2023-02-06T03:10:00.065Z,11.83
2023-02-06T03:12:41.436Z,17.97
2023-02-06T03:15:43.144Z,13.60
2023-02-06T03:18:21.323Z,12.33
2023-02-06T03:20:50.125Z,13.63
2023-02-06T03:23:28.922Z,14.13
2023-02-06T03:26:02.656Z,12.83
2023-02-06T03:28:39.028Z,12.83
2023-02-06T03:31:15.907Z,12.83
2023-02-06T03:34:00.996Z,14.20
2023-02-06T03:36:29.942Z,13.27
2023-02-06T03:38:58.353Z,18.53
2023-02-06T03:41:33.741Z,14.83
2023-02-06T03:44:04.920Z,14.10
2023-02-06T03:46:35.262Z,15.07
2023-02-06T03:49:08.679Z,13.33
2023-02-06T03:52:01.565Z,12.63
2023-02-06T03:54:31.552Z,13.53
2023-02-06T03:57:04.615Z,12.60
2023-02-06T03:59:33.317Z,14.13
2023-02-06T04:02:04.354Z,13.63
2023-02-06T04:04:38.248Z,13.63
2023-02-06T04:07:19.113Z,14.70
2023-02-06T04:09:47.818Z,15.37
2023-02-06T04:12:16.677Z,17.70
2023-02-06T04:14:45.918Z,16.23
2023-02-06T04:17:23.767Z,14.57
2023-02-06T04:20:00.237Z,16.10
2023-02-06T04:22:29.053Z,14.83
2023-02-06T04:24:57.665Z,17.30
2023-02-06T04:27:26.911Z,15.23
2023-02-06T04:29:55.508Z,14.73
2023-02-06T04:32:24.232Z,12.23
2023-02-06T04:34:52.823Z,14.60
2023-02-06T04:37:21.367Z,17.03
2023-02-06T04:39:50.141Z,13.70
2023-02-06T04:42:18.759Z,13.43
2023-02-06T04:44:47.399Z,14.00
2023-02-06T04:47:16.065Z,14.83
2023-02-06T04:49:44.626Z,13.63
2023-02-06T04:52:13.322Z,17.10
2023-02-06T04:54:41.888Z,15.33
2023-02-06T04:57:10.543Z,15.80
2023-02-06T04:59:39.224Z,13.60
2023-02-06T05:02:07.828Z,14.07
2023-02-06T05:04:36.475Z,14.03
2023-02-06T05:07:05.603Z,13.00
2023-02-06T05:09:34.439Z,17.20
2023-02-06T05:12:03.045Z,16.33
2023-02-06T05:14:31.848Z,17.50
2023-02-06T05:17:00.564Z,16.33
2023-02-06T05:19:29.377Z,16.33
2023-02-06T05:21:57.970Z,14.63
2023-02-06T05:24:26.573Z,15.53
2023-02-06T05:26:57.944Z,14.63
2023-02-06T05:29:27.574Z,15.50
2023-02-06T05:31:56.212Z,15.30
2023-02-06T05:34:24.875Z,17.37
2023-02-06T05:36:53.609Z,13.97
2023-02-06T05:39:22.380Z,16.73
2023-02-06T05:41:51.127Z,16.33
2023-02-06T05:44:20.110Z,14.47
2023-02-06T05:46:49.455Z,16.17
2023-02-06T05:49:17.928Z,15.40
2023-02-06T05:51:46.376Z,16.73
2023-02-06T05:54:17.099Z,15.13
2023-02-06T05:56:45.906Z,13.67
2023-02-06T05:59:14.546Z,16.67
2023-02-06T06:01:43.202Z,13.80
2023-02-06T06:04:11.915Z,16.00
2023-02-06T06:06:40.470Z,18.13
2023-02-06T06:09:09.268Z,15.70
2023-02-06T06:11:38.053Z,16.63
2023-02-06T06:14:07.026Z,18.23
2023-02-06T06:16:35.907Z,15.47
2023-02-06T06:19:05.052Z,19.60
2023-02-06T06:21:34.019Z,18.83
2023-02-06T06:24:03.604Z,18.60
2023-02-06T06:26:32.374Z,23.00
2023-02-06T06:29:00.962Z,19.43
2023-02-06T06:31:29.607Z,19.20
2023-02-06T06:33:58.205Z,18.13
2023-02-06T06:36:26.804Z,20.17
2023-02-06T06:38:55.563Z,19.13
2023-02-06T06:41:24.170Z,21.87
2023-02-06T06:43:52.856Z,18.13
2023-02-06T06:46:21.477Z,21.63
2023-02-06T06:48:53.025Z,19.10
2023-02-06T06:51:21.697Z,18.70
2023-02-06T06:53:50.456Z,17.70
2023-02-06T06:56:19.008Z,19.93
2023-02-06T06:58:47.758Z,19.90
2023-02-06T07:01:16.474Z,20.57
2023-02-06T07:03:47.095Z,20.47
2023-02-06T07:06:16.129Z,21.60
2023-02-06T07:08:44.738Z,19.07
2023-02-06T07:11:15.847Z,17.50
2023-02-06T07:13:44.683Z,18.30
2023-02-06T07:16:13.881Z,23.90
2023-02-06T07:18:43.147Z,20.20
2023-02-06T07:21:14.207Z,19.90
2023-02-06T07:23:43.010Z,21.47
2023-02-06T07:26:12.325Z,18.67
2023-02-06T07:28:41.511Z,18.00
2023-02-06T07:31:10.847Z,19.67
2023-02-06T07:33:39.460Z,22.37
2023-02-06T07:36:12.617Z,19.40
2023-02-06T07:38:41.430Z,19.73
2023-02-06T07:41:12.590Z,22.20
2023-02-06T07:43:41.385Z,24.40
2023-02-06T07:46:10.083Z,19.93
2023-02-06T07:48:38.665Z,21.13
2023-02-06T07:51:09.844Z,23.10
2023-02-06T07:53:39.153Z,20.63
2023-02-06T07:56:17.008Z,18.87
2023-02-06T07:58:47.540Z,19.43
2023-02-06T08:01:16.341Z,20.77
2023-02-06T08:03:46.185Z,21.00
2023-02-06T08:06:17.330Z,22.47
2023-02-06T08:08:46.511Z,25.07
2023-02-06T08:11:20.885Z,21.90
2023-02-06T08:13:50.026Z,23.37
2023-02-06T08:16:21.982Z,29.57
2023-02-06T08:18:50.977Z,26.70
2023-02-06T08:21:23.720Z,24.70
2023-02-06T08:24:01.035Z,25.93
2023-02-06T08:26:31.863Z,23.77
2023-02-06T08:29:05.113Z,26.73
2023-02-06T08:31:38.789Z,24.67
2023-02-06T08:34:08.960Z,25.90
2023-02-06T08:36:38.004Z,27.13
2023-02-06T08:39:06.748Z,28.33
2023-02-06T08:41:40.739Z,25.83
2023-02-06T08:44:14.501Z,26.73
2023-02-06T08:46:43.977Z,28.80
2023-02-06T08:49:18.774Z,24.80
2023-02-06T08:51:49.375Z,26.37
2023-02-06T08:54:21.557Z,25.13
2023-02-06T08:56:51.585Z,30.03
2023-02-06T08:59:21.502Z,32.87
2023-02-06T09:01:52.251Z,30.67
2023-02-06T09:04:21.038Z,29.10
2023-02-06T09:06:50.265Z,35.47
2023-02-06T09:09:19.603Z,37.43
2023-02-06T09:11:48.294Z,38.07
2023-02-06T09:14:20.416Z,37.90
2023-02-06T09:16:49.070Z,36.50
2023-02-06T09:19:17.655Z,36.43
2023-02-06T09:21:46.301Z,33.67
2023-02-06T09:24:14.892Z,39.37
2023-02-06T09:26:58.543Z,37.47
2023-02-06T09:29:31.958Z,37.97
2023-02-06T09:32:01.429Z,38.17
2023-02-06T09:34:30.517Z,39.80
2023-02-06T09:36:59.405Z,34.03
2023-02-06T09:39:29.074Z,36.80
2023-02-06T09:42:07.217Z,42.13
2023-02-06T09:44:49.408Z,34.03
2023-02-06T09:47:51.305Z,31.57
2023-02-06T09:50:40.865Z,30.07
2023-02-06T09:53:31.516Z,30.13
2023-02-06T09:56:34.426Z,32.60
2023-02-06T09:59:25.479Z,29.67
2023-02-06T10:02:24.468Z,28.60
2023-02-06T10:05:15.824Z,29.90
2023-02-06T10:08:16.684Z,33.93
2023-02-06T10:10:58.243Z,27.87
2023-02-06T10:13:26.925Z,33.80
2023-02-06T10:16:05.819Z,29.03
2023-02-06T10:18:41.619Z,31.60
2023-02-06T10:21:34.809Z,27.57
2023-02-06T10:24:12.526Z,27.57
2023-02-06T10:26:42.737Z,24.87
2023-02-06T10:29:24.602Z,24.13
2023-02-06T10:31:56.081Z,24.53
2023-02-06T10:34:42.510Z,26.20
2023-02-06T10:37:28.905Z,31.67
2023-02-06T10:40:48.267Z,27.63
2023-02-06T10:43:16.911Z,26.27
2023-02-06T10:45:45.490Z,27.60
2023-02-06T10:48:44.586Z,26.83
2023-02-06T10:51:33.099Z,24.97
2023-02-06T10:54:13.553Z,26.13
2023-02-06T10:56:45.940Z,28.80
2023-02-06T10:59:40.529Z,32.93
2023-02-06T11:02:12.958Z,24.30
2023-02-06T11:04:52.276Z,24.37
2023-02-06T11:07:35.063Z,23.03
2023-02-06T11:10:03.721Z,25.37
2023-02-06T11:12:40.430Z,24.83
2023-02-06T11:15:38.963Z,27.67
2023-02-06T11:18:12.826Z,26.80
2023-02-06T11:20:45.089Z,26.97
2023-02-06T11:23:24.075Z,22.43
2023-02-06T11:26:19.687Z,26.10
2023-02-06T11:28:55.256Z,25.87
2023-02-06T11:31:45.651Z,26.23
2023-02-06T11:34:37.132Z,18.50
2023-02-06T11:37:36.412Z,19.07
2023-02-06T11:40:19.989Z,21.30
2023-02-06T11:42:52.692Z,22.60
2023-02-06T11:45:33.149Z,22.33
2023-02-06T11:48:02.570Z,21.73
2023-02-06T11:50:38.659Z,18.33
2023-02-06T11:53:19.446Z,20.10
2023-02-06T11:56:00.948Z,20.10
2023-02-06T11:58:30.873Z,20.50
2023-02-06T12:01:09.653Z,21.63
2023-02-06T12:03:51.611Z,24.50
2023-02-06T12:06:40.573Z,24.80
2023-02-06T12:09:14.210Z,21.33
2023-02-06T12:12:16.464Z,22.43
2023-02-06T12:15:45.559Z,21.00
2023-02-06T12:18:28.784Z,20.07
2023-02-06T12:21:18.180Z,21.80
2023-02-06T12:24:02.995Z,19.93
2023-02-06T12:26:35.355Z,20.53
2023-02-06T12:29:20.068Z,22.07
2023-02-06T12:31:54.104Z,17.47
2023-02-06T12:34:31.465Z,18.03
2023-02-06T12:37:20.817Z,17.90
2023-02-06T12:39:50.532Z,16.87
2023-02-06T12:42:59.563Z,16.33
2023-02-06T12:45:40.857Z,17.80
2023-02-06T12:48:23.103Z,19.90
2023-02-06T12:51:22.128Z,15.37
2023-02-06T12:54:04.996Z,16.87
2023-02-06T12:56:41.421Z,17.27
2023-02-06T13:00:02.717Z,16.23
2023-02-06T13:03:14.167Z,16.30
2023-02-06T13:05:49.715Z,10.77
2023-02-06T13:08:30.364Z,13.77
2023-02-06T13:11:09.761Z,12.37
2023-02-06T13:13:41.731Z,13.53
2023-02-06T13:16:10.802Z,13.63
2023-02-06T13:18:47.188Z,12.60
2023-02-06T13:21:25.414Z,14.30
2023-02-06T13:24:02.925Z,12.23
2023-02-06T13:26:51.614Z,12.83
2023-02-06T13:29:28.189Z,13.53
2023-02-06T13:32:15.286Z,14.10
2023-02-06T13:35:08.653Z,14.37
2023-02-06T13:37:40.276Z,14.63
2023-02-06T13:40:26.799Z,15.73
2023-02-06T13:43:14.861Z,12.80
2023-02-06T13:46:00.581Z,12.30
2023-02-06T13:49:00.184Z,13.87
2023-02-06T13:51:55.922Z,13.47
2023-02-06T13:55:34.591Z,12.90
2023-02-06T13:58:40.990Z,13.30
2023-02-06T14:01:23.189Z,11.33
2023-02-06T14:03:54.200Z,14.37
2023-02-06T14:06:56.747Z,11.40
2023-02-06T14:10:05.255Z,13.73
2023-02-06T14:13:08.251Z,19.73
2023-02-06T14:16:20.058Z,29.77
2023-02-06T14:19:04.452Z,43.17
2023-02-06T14:21:53.979Z,23.80
2023-02-06T14:25:04.190Z,14.63
2023-02-06T14:28:08.489Z,24.03
2023-02-06T14:30:51.131Z,21.87
2023-02-06T14:33:19.821Z,13.37
2023-02-06T14:36:22.288Z,17.77
2023-02-06T14:39:09.768Z,15.63
2023-02-06T14:41:39.745Z,14.47
2023-02-06T14:44:25.619Z,15.97
2023-02-06T14:46:54.480Z,15.67
2023-02-06T14:49:35.583Z,17.53
2023-02-06T14:52:05.965Z,17.13
2023-02-06T14:54:38.434Z,14.53
2023-02-06T14:57:24.159Z,17.83
2023-02-06T15:00:07.828Z,17.43
2023-02-06T15:02:38.757Z,17.80
2023-02-06T15:05:07.768Z,20.03
2023-02-06T15:07:39.745Z,20.73
2023-02-06T15:10:18.338Z,20.13
2023-02-06T15:12:54.906Z,20.13
2023-02-06T15:15:33.389Z,24.13
2023-02-06T15:18:19.309Z,23.53
2023-02-06T15:21:03.237Z,23.70
2023-02-06T15:24:05.927Z,23.70
2023-02-06T15:26:49.191Z,22.90
2023-02-06T15:29:24.035Z,22.23
2023-02-06T15:31:56.411Z,23.47
2023-02-06T15:34:26.513Z,26.30
2023-02-06T15:36:55.297Z,27.43
2023-02-06T15:39:24.096Z,26.80
2023-02-06T15:41:54.177Z,27.20
2023-02-06T15:44:38.621Z,26.73
2023-02-06T15:47:14.433Z,26.73
2023-02-06T15:49:46.362Z,28.63
2023-02-06T15:52:32.664Z,28.33
2023-02-06T15:55:02.359Z,29.03
2023-02-06T15:57:42.423Z,32.43
2023-02-06T16:00:27.499Z,29.33
2023-02-06T16:03:03.891Z,30.90
2023-02-06T16:05:41.578Z,32.47
2023-02-06T16:08:21.955Z,30.87
2023-02-06T16:10:55.139Z,32.00
2023-02-06T16:13:28.048Z,29.53
2023-02-06T16:16:19.696Z,47.73
2023-02-06T16:18:52.037Z,57.93
2023-02-06T16:21:20.678Z,45.23
2023-02-06T16:24:17.779Z,51.90
2023-02-06T16:26:52.410Z,38.40
2023-02-06T16:29:33.072Z,38.23
2023-02-06T16:32:10.245Z,32.20
2023-02-06T16:34:46.103Z,30.63
2023-02-06T16:37:30.399Z,32.10
2023-02-06T16:39:59.056Z,33.83
2023-02-06T16:42:35.546Z,30.00
2023-02-06T16:45:28.338Z,29.47
2023-02-06T16:47:57.215Z,30.73
2023-02-06T16:50:25.903Z,30.70
2023-02-06T16:53:04.714Z,32.17
2023-02-06T16:55:33.197Z,29.90
2023-02-06T16:58:02.831Z,29.40
2023-02-06T17:00:33.353Z,31.03
2023-02-06T17:03:02.109Z,29.03
2023-02-06T17:05:31.651Z,31.50
2023-02-06T17:08:01.776Z,31.67
2023-02-06T17:10:30.509Z,34.07
2023-02-06T17:12:59.257Z,30.13
2023-02-06T17:15:29.249Z,31.43
2023-02-06T17:17:57.928Z,31.37
2023-02-06T17:20:27.128Z,30.77
2023-02-06T17:22:55.745Z,31.23
2023-02-06T17:25:24.355Z,30.33
2023-02-06T17:27:53.805Z,28.70
2023-02-06T17:30:25.909Z,27.57
2023-02-06T17:32:54.801Z,31.30
2023-02-06T17:35:24.531Z,28.83
2023-02-06T17:37:54.091Z,29.93
2023-02-06T17:40:32.586Z,25.87
2023-02-06T17:43:04.068Z,23.37
2023-02-06T17:45:33.706Z,24.23
2023-02-06T17:48:02.811Z,26.43
2023-02-06T17:50:31.871Z,23.23
2023-02-06T17:53:00.734Z,26.50
2023-02-06T17:55:29.726Z,24.50
2023-02-06T17:57:58.775Z,24.20
2023-02-06T18:00:27.833Z,24.60
2023-02-06T18:03:00.058Z,25.17
2023-02-06T18:05:29.335Z,25.27
2023-02-06T18:07:58.040Z,27.30
2023-02-06T18:10:27.604Z,26.43
2023-02-06T18:12:56.465Z,24.83
2023-02-06T18:15:25.108Z,25.20
2023-02-06T18:17:54.990Z,22.77
2023-02-06T18:20:23.527Z,28.03
2023-02-06T18:22:52.585Z,25.47
2023-02-06T18:25:21.549Z,29.70
2023-02-06T18:27:50.270Z,28.13
2023-02-06T18:30:18.925Z,29.30
2023-02-06T18:32:47.536Z,24.60
2023-02-06T18:35:16.490Z,28.70
2023-02-06T18:37:45.203Z,27.90
2023-02-06T18:40:14.080Z,29.87
2023-02-06T18:42:51.052Z,24.67
2023-02-06T18:45:21.901Z,24.33
2023-02-06T18:47:52.210Z,25.03
2023-02-06T18:50:22.261Z,25.47
2023-02-06T18:52:51.994Z,26.90
2023-02-06T18:55:21.104Z,29.67
2023-02-06T18:57:49.639Z,29.13
2023-02-06T19:00:21.167Z,30.27
2023-02-06T19:02:50.298Z,31.50
2023-02-06T19:05:19.247Z,27.23
2023-02-06T19:07:52.713Z,29.37
2023-02-06T19:10:22.539Z,25.93
2023-02-06T19:12:51.132Z,31.67
2023-02-06T19:15:19.935Z,28.40
2023-02-06T19:17:49.585Z,28.60
2023-02-06T19:20:18.702Z,29.20
2023-02-06T19:22:47.375Z,25.67
2023-02-06T19:25:16.065Z,27.63
2023-02-06T19:27:44.850Z,28.77
2023-02-06T19:30:14.342Z,29.50
2023-02-06T19:32:43.482Z,32.97
2023-02-06T19:35:13.143Z,32.03
2023-02-06T19:37:42.163Z,27.17
2023-02-06T19:40:11.289Z,33.20
2023-02-06T19:42:41.118Z,25.10
2023-02-06T19:45:09.794Z,30.93
2023-02-06T19:47:38.412Z,28.93
2023-02-06T19:50:07.555Z,31.20
2023-02-06T19:52:36.181Z,30.27
2023-02-06T19:55:05.410Z,31.23
2023-02-06T19:57:34.153Z,29.17
2023-02-06T20:00:04.454Z,29.40
2023-02-06T20:02:33.087Z,32.70
2023-02-06T20:05:02.726Z,27.47
2023-02-06T20:07:32.117Z,29.83
2023-02-06T20:10:00.790Z,26.87
2023-02-06T20:12:29.433Z,29.70
2023-02-06T20:14:58.035Z,31.53
2023-02-06T20:17:27.002Z,28.77
2023-02-06T20:19:55.972Z,28.53
2023-02-06T20:22:24.336Z,28.97
2023-02-06T20:24:52.908Z,31.57
2023-02-06T20:27:21.554Z,28.23
2023-02-06T20:29:50.183Z,27.83
2023-02-06T20:32:19.532Z,27.17
2023-02-06T20:34:48.625Z,29.10
2023-02-06T20:37:18.033Z,28.30
2023-02-06T20:39:46.651Z,29.67
2023-02-06T20:42:15.536Z,31.93
2023-02-06T20:44:44.153Z,28.90
2023-02-06T20:47:12.476Z,28.47
2023-02-06T20:49:41.967Z,29.90
2023-02-06T20:52:10.201Z,31.70
2023-02-06T20:54:38.957Z,28.50
2023-02-06T20:57:07.892Z,28.73
2023-02-06T20:59:36.547Z,31.93
2023-02-06T21:02:05.200Z,28.47
2023-02-06T21:04:34.498Z,31.90
2023-02-06T21:07:03.163Z,31.30
2023-02-06T21:09:32.104Z,35.17
2023-02-06T21:12:00.781Z,29.20
2023-02-06T21:14:30.176Z,30.37
2023-02-06T21:16:58.940Z,28.83
2023-02-06T21:19:29.249Z,31.30
2023-02-06T21:21:58.132Z,30.27
2023-02-06T21:24:26.715Z,30.13
2023-02-06T21:26:55.612Z,29.30
2023-02-06T21:29:24.233Z,31.17
2023-02-06T21:32:07.206Z,30.73
2023-02-06T21:34:41.288Z,28.33
2023-02-06T21:37:10.264Z,30.07
2023-02-06T21:39:41.090Z,28.67
2023-02-06T21:42:11.681Z,33.70
2023-02-06T21:44:40.728Z,31.83
2023-02-06T21:47:10.180Z,28.87
2023-02-06T21:49:38.940Z,28.33
2023-02-06T21:52:07.752Z,30.97
2023-02-06T21:54:36.662Z,32.17
2023-02-06T21:57:05.258Z,35.97
2023-02-06T21:59:34.232Z,35.10
2023-02-06T22:02:03.019Z,39.07
2023-02-06T22:04:31.651Z,38.43
2023-02-06T22:07:00.264Z,34.83
2023-02-06T22:09:28.969Z,40.40
2023-02-06T22:11:58.331Z,39.40
2023-02-06T22:14:27.013Z,39.67
2023-02-06T22:16:55.698Z,41.43
2023-02-06T22:19:24.332Z,41.93
2023-02-06T22:21:53.080Z,31.20
2023-02-06T22:24:22.005Z,29.70
2023-02-06T22:26:50.407Z,36.10
2023-02-06T22:29:19.460Z,25.97
2023-02-06T22:31:48.426Z,27.20
2023-02-06T22:34:20.877Z,26.73
2023-02-06T22:36:52.512Z,29.77
2023-02-06T22:39:21.233Z,26.93
2023-02-06T22:41:50.294Z,27.33
2023-02-06T22:44:20.549Z,31.33
2023-02-06T22:46:52.287Z,27.93
2023-02-06T22:49:22.380Z,26.70
2023-02-06T22:51:50.859Z,29.10
2023-02-06T22:54:19.314Z,29.13
2023-02-06T22:56:47.747Z,28.17
2023-02-06T22:59:27.842Z,29.50
2023-02-06T23:01:59.264Z,30.60
2023-02-06T23:04:34.624Z,29.93
2023-02-06T23:07:16.144Z,32.80
2023-02-06T23:09:44.652Z,29.67
2023-02-06T23:12:13.798Z,32.10
2023-02-06T23:14:42.247Z,26.40
2023-02-06T23:17:10.770Z,28.63
2023-02-06T23:19:40.897Z,30.57
2023-02-06T23:22:10.636Z,31.50
2023-02-06T23:24:39.027Z,33.10
2023-02-06T23:27:07.494Z,30.30
2023-02-06T23:29:35.948Z,31.60
2023-02-06T23:32:04.340Z,32.20
2023-02-06T23:34:32.795Z,31.03
2023-02-06T23:37:01.215Z,32.43
2023-02-06T23:39:29.666Z,31.90
2023-02-06T23:41:58.151Z,31.60
2023-02-06T23:44:26.577Z,31.00
2023-02-06T23:46:55.103Z,30.47
2023-02-06T23:49:23.509Z,32.23
2023-02-06T23:51:51.941Z,29.07
2023-02-06T23:54:20.373Z,31.87
2023-02-06T23:56:58.003Z,28.33
2023-02-06T23:59:26.466Z,31.87
